createdAt,value
2018-05-08T00:00:56.781Z,933.83
2018-05-08T00:01:56.929Z,933.83
2018-05-08T00:02:56.867Z,933.82
2018-05-08T00:03:56.913Z,933.85
2018-05-08T00:04:56.970Z,933.83
2018-05-08T00:05:57.008Z,933.84
2018-05-08T00:06:57.156Z,933.81
2018-05-08T00:07:57.087Z,933.77
2018-05-08T00:08:57.201Z,933.86
2018-05-08T00:09:57.197Z,933.79
2018-05-08T00:10:57.235Z,933.80
2018-05-08T00:11:57.369Z,933.77
2018-05-08T00:12:57.321Z,933.76
2018-05-08T00:13:57.372Z,933.76
2018-05-08T00:14:57.417Z,933.78
2018-05-08T00:15:57.463Z,933.81
2018-05-08T00:16:57.607Z,933.80
2018-05-08T00:17:57.540Z,933.80
2018-05-08T00:18:57.600Z,933.78
2018-05-08T00:19:57.639Z,933.78
2018-05-08T00:20:57.676Z,933.80
2018-05-08T00:21:57.823Z,933.79
2018-05-08T00:22:57.781Z,933.77
2018-05-08T00:23:57.835Z,933.76
2018-05-08T00:24:57.877Z,933.76
2018-05-08T00:25:57.924Z,933.81
2018-05-08T00:26:58.063Z,933.79
2018-05-08T00:27:58.097Z,933.84
2018-05-08T00:28:58.056Z,933.82
2018-05-08T00:29:58.102Z,933.80
2018-05-08T00:30:58.137Z,933.83
2018-05-08T00:31:58.178Z,933.86
2018-05-08T00:32:58.325Z,933.91
2018-05-08T00:33:58.276Z,933.90
2018-05-08T00:34:58.391Z,933.91
2018-05-08T00:35:58.360Z,933.86
2018-05-08T00:36:58.417Z,933.94
2018-05-08T00:37:58.567Z,933.94
2018-05-08T00:38:58.608Z,933.84
2018-05-08T00:39:58.543Z,933.96
2018-05-08T00:40:58.608Z,933.92
2018-05-08T00:41:58.652Z,933.89
2018-05-08T00:42:58.682Z,933.93
2018-05-08T00:43:58.827Z,933.90
2018-05-08T00:44:58.789Z,933.86
2018-05-08T00:45:58.828Z,933.95
2018-05-08T00:46:58.863Z,933.92
2018-05-08T00:47:58.920Z,933.91
2018-05-08T00:48:59.054Z,933.88
2018-05-08T00:49:59.013Z,933.88
2018-05-08T00:50:59.056Z,933.90
2018-05-08T00:51:59.109Z,933.90
2018-05-08T00:52:59.146Z,933.89
2018-05-08T00:53:59.280Z,933.89
2018-05-08T00:54:59.241Z,933.90
2018-05-08T00:55:59.298Z,933.92
2018-05-08T00:56:59.316Z,933.98
2018-05-08T00:57:59.372Z,933.89
2018-05-08T00:58:59.529Z,933.90
2018-05-08T00:59:59.462Z,933.93
2018-05-08T01:00:59.515Z,933.94
2018-05-08T01:01:59.542Z,933.98
2018-05-08T01:02:59.597Z,933.95
2018-05-08T01:03:59.744Z,934.00
2018-05-08T01:04:59.733Z,934.03
2018-05-08T01:05:59.732Z,934.01
2018-05-08T01:06:59.770Z,934.00
2018-05-08T01:07:59.823Z,934.03
2018-05-08T01:08:59.969Z,934.00
2018-05-08T01:09:59.919Z,933.97
2018-05-08T01:10:59.961Z,933.96
2018-05-08T01:12:00.012Z,933.96
2018-05-08T01:13:00.058Z,933.98
2018-05-08T01:14:00.203Z,934.01
2018-05-08T01:15:00.236Z,933.98
2018-05-08T01:16:00.193Z,933.96
2018-05-08T01:17:00.232Z,933.98
2018-05-08T01:18:00.292Z,933.97
2018-05-08T01:19:00.318Z,933.92
2018-05-08T01:20:00.470Z,933.92
2018-05-08T01:21:00.420Z,933.92
2018-05-08T01:22:00.467Z,933.93
2018-05-08T01:23:00.507Z,933.96
2018-05-08T01:24:00.556Z,933.97
2018-05-08T01:25:00.702Z,933.92
2018-05-08T01:26:00.659Z,933.89
2018-05-08T01:27:00.695Z,933.91
2018-05-08T01:28:00.739Z,933.87
2018-05-08T01:29:00.779Z,933.86
2018-05-08T01:30:00.931Z,933.85
2018-05-08T01:31:00.981Z,933.88
2018-05-08T01:32:00.908Z,933.86
2018-05-08T01:33:00.952Z,933.86
2018-05-08T01:34:01.013Z,933.84
2018-05-08T01:35:01.071Z,933.88
2018-05-08T01:36:01.199Z,933.87
2018-05-08T01:37:01.162Z,933.88
2018-05-08T01:38:01.183Z,933.82
2018-05-08T01:39:01.241Z,933.85
2018-05-08T01:40:01.286Z,933.83
2018-05-08T01:41:01.431Z,933.87
2018-05-08T01:42:01.366Z,933.89
2018-05-08T01:43:01.436Z,933.86
2018-05-08T01:44:01.463Z,933.88
2018-05-08T01:45:01.516Z,933.85
2018-05-08T01:46:01.660Z,933.85
2018-05-08T01:47:01.605Z,933.87
2018-05-08T01:48:01.652Z,933.88
2018-05-08T01:49:01.690Z,933.90
2018-05-08T01:50:01.742Z,933.88
2018-05-08T01:51:01.890Z,933.90
2018-05-08T01:52:01.842Z,933.87
2018-05-08T01:53:01.867Z,933.87
2018-05-08T01:54:01.921Z,933.89
2018-05-08T01:55:01.978Z,933.87
2018-05-08T01:56:02.127Z,933.89
2018-05-08T01:57:02.175Z,933.89
2018-05-08T01:58:02.096Z,933.89
2018-05-08T01:59:02.139Z,933.88
2018-05-08T02:00:02.185Z,933.86
2018-05-08T02:01:02.250Z,933.85
2018-05-08T02:02:02.388Z,933.86
2018-05-08T02:03:02.440Z,933.87
2018-05-08T02:04:02.389Z,933.89
2018-05-08T02:05:02.419Z,933.92
2018-05-08T02:06:02.466Z,933.96
2018-05-08T02:07:02.515Z,933.98
2018-05-08T02:08:02.649Z,933.97
2018-05-08T02:09:02.714Z,933.98
2018-05-08T02:10:02.647Z,933.94
2018-05-08T02:11:02.687Z,933.94
2018-05-08T02:12:02.729Z,933.92
2018-05-08T02:13:02.786Z,933.93
2018-05-08T02:14:02.923Z,933.93
2018-05-08T02:15:02.966Z,933.93
2018-05-08T02:16:02.911Z,933.95
2018-05-08T02:17:02.964Z,933.95
2018-05-08T02:18:03.023Z,933.89
2018-05-08T02:19:03.053Z,933.91
2018-05-08T02:20:03.202Z,933.93
2018-05-08T02:21:03.160Z,933.94
2018-05-08T02:22:03.186Z,933.93
2018-05-08T02:23:03.235Z,933.93
2018-05-08T02:24:03.278Z,933.94
2018-05-08T02:25:03.443Z,933.97
2018-05-08T02:26:03.367Z,933.98
2018-05-08T02:27:03.412Z,933.94
2018-05-08T02:28:03.471Z,933.97
2018-05-08T02:29:03.519Z,933.95
2018-05-08T02:30:03.556Z,933.96
2018-05-08T02:31:03.699Z,933.95
2018-05-08T02:32:03.644Z,933.98
2018-05-08T02:33:03.694Z,933.98
2018-05-08T02:34:03.759Z,933.96
2018-05-08T02:35:03.778Z,933.93
2018-05-08T02:36:03.943Z,933.90
2018-05-08T02:37:03.973Z,933.88
2018-05-08T02:38:03.928Z,933.82
2018-05-08T02:39:03.979Z,933.82
2018-05-08T02:40:04.019Z,933.79
2018-05-08T02:41:04.066Z,933.72
2018-05-08T02:42:04.218Z,933.75
2018-05-08T02:43:04.155Z,933.68
2018-05-08T02:44:04.203Z,933.72
2018-05-08T02:45:04.246Z,933.71
2018-05-08T02:46:04.299Z,933.74
2018-05-08T02:47:04.437Z,933.71
2018-05-08T02:48:04.373Z,933.72
2018-05-08T02:49:04.428Z,933.70
2018-05-08T02:50:04.487Z,933.71
2018-05-08T02:51:04.507Z,933.71
2018-05-08T02:52:04.652Z,933.74
2018-05-08T02:53:04.698Z,933.72
2018-05-08T02:54:04.645Z,933.74
2018-05-08T02:55:04.688Z,933.70
2018-05-08T02:56:04.747Z,933.74
2018-05-08T02:57:04.792Z,933.67
2018-05-08T02:58:04.938Z,933.69
2018-05-08T02:59:04.869Z,933.67
2018-05-08T03:00:04.936Z,933.66
2018-05-08T03:01:04.987Z,933.64
2018-05-08T03:02:05.023Z,933.64
2018-05-08T03:03:05.171Z,933.58
2018-05-08T03:04:05.112Z,933.66
2018-05-08T03:05:05.155Z,933.58
2018-05-08T03:06:05.202Z,933.58
2018-05-08T03:07:05.246Z,933.58
2018-05-08T03:08:05.391Z,933.57
2018-05-08T03:09:05.333Z,933.53
2018-05-08T03:10:05.372Z,933.55
2018-05-08T03:11:05.432Z,933.54
2018-05-08T03:12:05.460Z,933.47
2018-05-08T03:13:05.605Z,933.50
2018-05-08T03:14:05.649Z,933.49
2018-05-08T03:15:05.606Z,933.45
2018-05-08T03:16:05.644Z,933.45
2018-05-08T03:17:05.703Z,933.51
2018-05-08T03:18:05.740Z,933.48
2018-05-08T03:19:05.893Z,933.43
2018-05-08T03:20:05.933Z,933.43
2018-05-08T03:21:05.863Z,933.40
2018-05-08T03:22:05.921Z,933.43
2018-05-08T03:23:05.956Z,933.39
2018-05-08T03:24:06.021Z,933.40
2018-05-08T03:25:06.157Z,933.37
2018-05-08T03:26:06.103Z,933.37
2018-05-08T03:27:06.136Z,933.37
2018-05-08T03:28:06.193Z,933.37
2018-05-08T03:29:06.240Z,933.39
2018-05-08T03:30:06.385Z,933.34
2018-05-08T03:31:06.321Z,933.34
2018-05-08T03:32:06.363Z,933.36
2018-05-08T03:33:06.409Z,933.35
2018-05-08T03:34:06.466Z,933.34
2018-05-08T03:35:06.615Z,933.31
2018-05-08T03:36:06.675Z,933.31
2018-05-08T03:37:06.599Z,933.30
2018-05-08T03:38:06.651Z,933.24
2018-05-08T03:39:06.700Z,933.29
2018-05-08T03:40:06.730Z,933.26
2018-05-08T03:41:06.880Z,933.23
2018-05-08T03:42:06.930Z,933.22
2018-05-08T03:43:06.877Z,933.26
2018-05-08T03:44:06.917Z,933.18
2018-05-08T03:45:06.972Z,933.18
2018-05-08T03:46:07.018Z,933.19
2018-05-08T03:47:07.163Z,933.21
2018-05-08T03:48:07.099Z,933.20
2018-05-08T03:49:07.155Z,933.19
2018-05-08T03:50:07.200Z,933.19
2018-05-08T03:51:07.234Z,933.18
2018-05-08T03:52:07.274Z,933.20
2018-05-08T03:53:07.430Z,933.18
2018-05-08T03:54:07.461Z,933.22
2018-05-08T03:55:07.406Z,933.22
2018-05-08T03:56:07.455Z,933.23
2018-05-08T03:57:07.497Z,933.20
2018-05-08T03:58:07.556Z,933.16
2018-05-08T03:59:07.691Z,933.16
2018-05-08T04:00:07.638Z,933.14
2018-05-08T04:01:07.681Z,933.12
2018-05-08T04:02:07.724Z,933.12
2018-05-08T04:03:07.774Z,933.09
2018-05-08T04:04:07.929Z,933.08
2018-05-08T04:05:07.960Z,933.11
2018-05-08T04:06:07.923Z,933.11
2018-05-08T04:07:07.962Z,933.08
2018-05-08T04:08:07.998Z,933.12
2018-05-08T04:09:08.039Z,933.10
2018-05-08T04:10:08.199Z,933.10
2018-05-08T04:11:08.245Z,933.09
2018-05-08T04:12:08.184Z,933.09
2018-05-08T04:13:08.231Z,933.08
2018-05-08T04:14:08.287Z,933.04
2018-05-08T04:15:08.400Z,933.00
2018-05-08T04:16:08.469Z,932.99
2018-05-08T04:17:08.501Z,932.98
2018-05-08T04:18:08.448Z,932.95
2018-05-08T04:19:08.492Z,932.96
2018-05-08T04:20:08.549Z,933.02
2018-05-08T04:21:08.583Z,933.00
2018-05-08T04:22:08.740Z,932.99
2018-05-08T04:23:08.787Z,932.98
2018-05-08T04:24:08.730Z,932.93
2018-05-08T04:25:08.776Z,932.94
2018-05-08T04:26:08.816Z,932.90
2018-05-08T04:27:08.881Z,932.88
2018-05-08T04:28:09.011Z,932.90
2018-05-08T04:29:08.954Z,932.90
2018-05-08T04:30:09.056Z,932.92
2018-05-08T04:31:09.044Z,932.90
2018-05-08T04:32:09.096Z,932.89
2018-05-08T04:33:09.241Z,932.89
2018-05-08T04:34:09.176Z,932.88
2018-05-08T04:35:09.236Z,932.88
2018-05-08T04:36:09.264Z,932.85
2018-05-08T04:37:09.313Z,932.82
2018-05-08T04:38:09.447Z,932.83
2018-05-08T04:39:09.412Z,932.78
2018-05-08T04:40:09.436Z,932.75
2018-05-08T04:41:09.488Z,932.76
2018-05-08T04:42:09.545Z,932.74
2018-05-08T04:43:09.679Z,932.75
2018-05-08T04:44:09.730Z,932.75
2018-05-08T04:45:09.668Z,932.81
2018-05-08T04:46:09.707Z,932.78
2018-05-08T04:47:09.774Z,932.74
2018-05-08T04:48:09.813Z,932.77
2018-05-08T04:49:09.950Z,932.82
2018-05-08T04:50:09.997Z,932.76
2018-05-08T04:51:09.932Z,932.79
2018-05-08T04:52:09.989Z,932.78
2018-05-08T04:53:10.031Z,932.74
2018-05-08T04:54:10.064Z,932.72
2018-05-08T04:55:10.221Z,932.75
2018-05-08T04:56:10.168Z,932.75
2018-05-08T04:57:10.199Z,932.75
2018-05-08T04:58:10.242Z,932.71
2018-05-08T04:59:10.304Z,932.78
2018-05-08T05:00:10.438Z,932.74
2018-05-08T05:01:10.395Z,932.73
2018-05-08T05:02:10.516Z,932.73
2018-05-08T05:03:10.465Z,932.73
2018-05-08T05:04:10.518Z,932.75
2018-05-08T05:05:10.659Z,932.74
2018-05-08T05:06:10.714Z,932.74
2018-05-08T05:07:10.645Z,932.77
2018-05-08T05:08:10.704Z,932.72
2018-05-08T05:09:10.746Z,932.72
2018-05-08T05:10:10.779Z,932.74
2018-05-08T05:11:10.955Z,932.69
2018-05-08T05:12:10.881Z,932.72
2018-05-08T05:13:10.924Z,932.66
2018-05-08T05:14:10.969Z,932.69
2018-05-08T05:15:11.017Z,932.66
2018-05-08T05:16:11.147Z,932.63
2018-05-08T05:17:11.103Z,932.62
2018-05-08T05:18:11.137Z,932.64
2018-05-08T05:19:11.194Z,932.63
2018-05-08T05:20:11.237Z,932.66
2018-05-08T05:21:11.371Z,932.68
2018-05-08T05:22:11.331Z,932.63
2018-05-08T05:23:11.377Z,932.68
2018-05-08T05:24:11.403Z,932.63
2018-05-08T05:25:11.459Z,932.64
2018-05-08T05:26:11.603Z,932.66
2018-05-08T05:27:11.547Z,932.67
2018-05-08T05:28:11.595Z,932.65
2018-05-08T05:29:11.644Z,932.64
2018-05-08T05:30:11.677Z,932.64
2018-05-08T05:31:11.816Z,932.67
2018-05-08T05:32:11.863Z,932.67
2018-05-08T05:33:11.804Z,932.64
2018-05-08T05:34:11.876Z,932.67
2018-05-08T05:35:11.904Z,932.63
2018-05-08T05:36:11.964Z,932.64
2018-05-08T05:37:12.082Z,932.66
2018-05-08T05:38:12.145Z,932.62
2018-05-08T05:39:12.071Z,932.65
2018-05-08T05:40:12.135Z,932.60
2018-05-08T05:41:12.167Z,932.58
2018-05-08T05:42:12.217Z,932.60
2018-05-08T05:43:12.362Z,932.58
2018-05-08T05:44:12.300Z,932.60
2018-05-08T05:45:12.337Z,932.59
2018-05-08T05:46:12.397Z,932.62
2018-05-08T05:47:12.427Z,932.63
2018-05-08T05:48:12.590Z,932.60
2018-05-08T05:49:12.528Z,932.60
2018-05-08T05:50:12.560Z,932.64
2018-05-08T05:51:12.603Z,932.63
2018-05-08T05:52:12.668Z,932.61
2018-05-08T05:53:12.822Z,932.58
2018-05-08T05:54:12.752Z,932.57
2018-05-08T05:55:12.783Z,932.55
2018-05-08T05:56:12.836Z,932.53
2018-05-08T05:57:12.872Z,932.53
2018-05-08T05:58:13.016Z,932.50
2018-05-08T05:59:13.071Z,932.50
2018-05-08T06:00:13.015Z,932.49
2018-05-08T06:01:13.076Z,932.48
2018-05-08T06:02:13.098Z,932.45
2018-05-08T06:03:13.148Z,932.45
2018-05-08T06:04:13.302Z,932.40
2018-05-08T06:05:13.324Z,932.41
2018-05-08T06:06:13.276Z,932.43
2018-05-08T06:07:13.330Z,932.42
2018-05-08T06:08:13.377Z,932.42
2018-05-08T06:09:13.412Z,932.48
2018-05-08T06:10:13.547Z,932.45
2018-05-08T06:11:13.498Z,932.44
2018-05-08T06:12:13.534Z,932.41
2018-05-08T06:13:13.578Z,932.45
2018-05-08T06:14:13.623Z,932.43
2018-05-08T06:15:13.880Z,932.42
2018-05-08T06:16:13.717Z,932.37
2018-05-08T06:17:13.782Z,932.37
2018-05-08T06:18:13.802Z,932.37
2018-05-08T06:19:13.857Z,932.35
2018-05-08T06:20:13.989Z,932.36
2018-05-08T06:21:14.044Z,932.38
2018-05-08T06:22:13.986Z,932.41
2018-05-08T06:23:14.029Z,932.36
2018-05-08T06:24:14.076Z,932.39
2018-05-08T06:25:14.110Z,932.38
2018-05-08T06:26:14.372Z,932.34
2018-05-08T06:27:14.548Z,932.35
2018-05-08T06:28:14.254Z,932.32
2018-05-08T06:29:14.293Z,932.32
2018-05-08T06:30:14.331Z,932.32
2018-05-08T06:31:14.387Z,932.33
2018-05-08T06:32:14.522Z,932.30
2018-05-08T06:33:14.725Z,932.33
2018-05-08T06:34:14.508Z,932.31
2018-05-08T06:35:14.552Z,932.31
2018-05-08T06:36:14.610Z,932.28
2018-05-08T06:37:14.660Z,932.29
2018-05-08T06:38:14.935Z,932.29
2018-05-08T06:39:14.832Z,932.31
2018-05-08T06:40:14.781Z,932.26
2018-05-08T06:41:14.835Z,932.31
2018-05-08T06:42:14.861Z,932.25
2018-05-08T06:43:14.912Z,932.30
2018-05-08T06:44:15.079Z,932.34
2018-05-08T06:45:15.115Z,932.28
2018-05-08T06:46:15.055Z,932.28
2018-05-08T06:47:15.103Z,932.31
2018-05-08T06:48:15.176Z,932.32
2018-05-08T06:49:15.188Z,932.30
2018-05-08T06:50:15.320Z,932.28
2018-05-08T06:51:15.360Z,932.27
2018-05-08T06:52:15.317Z,932.29
2018-05-08T06:53:15.355Z,932.25
2018-05-08T06:54:15.391Z,932.21
2018-05-08T06:55:15.434Z,932.20
2018-05-08T06:56:15.592Z,932.17
2018-05-08T06:57:15.630Z,932.12
2018-05-08T06:58:15.573Z,932.13
2018-05-08T06:59:15.612Z,932.03
2018-05-08T07:00:15.671Z,932.16
2018-05-08T07:01:15.700Z,932.16
2018-05-08T07:02:15.866Z,932.15
2018-05-08T07:03:15.903Z,932.16
2018-05-08T07:04:15.852Z,932.16
2018-05-08T07:05:15.883Z,932.13
2018-05-08T07:06:15.923Z,932.14
2018-05-08T07:07:15.968Z,932.16
2018-05-08T07:08:16.124Z,932.19
2018-05-08T07:09:16.262Z,932.15
2018-05-08T07:10:16.103Z,932.17
2018-05-08T07:11:16.156Z,932.17
2018-05-08T07:12:16.207Z,932.12
2018-05-08T07:13:16.240Z,932.15
2018-05-08T07:14:16.396Z,932.13
2018-05-08T07:15:16.320Z,932.16
2018-05-08T07:16:16.524Z,932.17
2018-05-08T07:17:16.421Z,932.15
2018-05-08T07:18:16.458Z,932.18
2018-05-08T07:19:16.609Z,932.17
2018-05-08T07:20:16.547Z,932.17
2018-05-08T07:21:16.602Z,932.17
2018-05-08T07:22:16.649Z,932.18
2018-05-08T07:23:16.685Z,932.20
2018-05-08T07:24:16.818Z,932.21
2018-05-08T07:25:16.771Z,932.22
2018-05-08T07:26:16.817Z,932.22
2018-05-08T07:27:16.878Z,932.25
2018-05-08T07:28:16.910Z,932.29
2018-05-08T07:29:17.066Z,932.24
2018-05-08T07:30:16.981Z,932.26
2018-05-08T07:31:17.028Z,932.25
2018-05-08T07:32:17.080Z,932.29
2018-05-08T07:33:17.113Z,932.27
2018-05-08T07:34:17.269Z,932.30
2018-05-08T07:35:17.207Z,932.27
2018-05-08T07:36:17.266Z,932.26
2018-05-08T07:37:17.309Z,932.21
2018-05-08T07:38:17.427Z,932.28
2018-05-08T07:39:17.588Z,932.26
2018-05-08T07:40:17.585Z,932.29
2018-05-08T07:41:17.480Z,932.26
2018-05-08T07:42:17.510Z,932.23
2018-05-08T07:43:17.555Z,932.27
2018-05-08T07:44:17.616Z,932.29
2018-05-08T07:45:17.757Z,932.34
2018-05-08T07:46:17.787Z,932.31
2018-05-08T07:47:17.747Z,932.31
2018-05-08T07:48:17.787Z,932.30
2018-05-08T07:49:17.827Z,932.32
2018-05-08T07:50:17.875Z,932.31
2018-05-08T07:51:18.019Z,932.28
2018-05-08T07:52:18.072Z,932.33
2018-05-08T07:53:18.006Z,932.36
2018-05-08T07:54:18.052Z,932.35
2018-05-08T07:55:18.103Z,932.34
2018-05-08T07:56:18.141Z,932.30
2018-05-08T07:57:18.297Z,932.34
2018-05-08T07:58:18.222Z,932.34
2018-05-08T07:59:18.312Z,932.37
2018-05-08T08:00:18.316Z,932.36
2018-05-08T08:01:18.347Z,932.41
2018-05-08T08:02:18.493Z,932.43
2018-05-08T08:03:18.540Z,932.44
2018-05-08T08:04:18.499Z,932.44
2018-05-08T08:05:18.523Z,932.48
2018-05-08T08:06:18.574Z,932.46
2018-05-08T08:07:18.728Z,932.43
2018-05-08T08:08:18.770Z,932.49
2018-05-08T08:09:18.719Z,932.44
2018-05-08T08:10:18.744Z,932.42
2018-05-08T08:11:18.787Z,932.40
2018-05-08T08:12:18.872Z,932.43
2018-05-08T08:13:18.988Z,932.44
2018-05-08T08:14:18.928Z,932.41
2018-05-08T08:15:18.975Z,932.43
2018-05-08T08:16:19.007Z,932.39
2018-05-08T08:17:19.052Z,932.39
2018-05-08T08:18:19.196Z,932.41
2018-05-08T08:19:19.266Z,932.41
2018-05-08T08:20:19.206Z,932.37
2018-05-08T08:21:19.239Z,932.39
2018-05-08T08:22:19.276Z,932.33
2018-05-08T08:23:19.329Z,932.34
2018-05-08T08:24:19.472Z,932.32
2018-05-08T08:25:19.512Z,932.35
2018-05-08T08:26:19.461Z,932.39
2018-05-08T08:27:19.510Z,932.39
2018-05-08T08:28:19.549Z,932.37
2018-05-08T08:29:19.581Z,932.40
2018-05-08T08:30:19.737Z,932.40
2018-05-08T08:31:19.790Z,932.40
2018-05-08T08:32:19.721Z,932.40
2018-05-08T08:33:19.769Z,932.40
2018-05-08T08:34:19.813Z,932.39
2018-05-08T08:35:19.858Z,932.39
2018-05-08T08:36:20.009Z,932.42
2018-05-08T08:37:20.035Z,932.42
2018-05-08T08:38:19.980Z,932.42
2018-05-08T08:39:20.037Z,932.46
2018-05-08T08:40:20.095Z,932.40
2018-05-08T08:41:20.125Z,932.43
2018-05-08T08:42:20.258Z,932.41
2018-05-08T08:43:20.311Z,932.46
2018-05-08T08:44:20.255Z,932.45
2018-05-08T08:45:20.319Z,932.46
2018-05-08T08:46:20.335Z,932.49
2018-05-08T08:47:20.380Z,932.42
2018-05-08T08:48:20.550Z,932.51
2018-05-08T08:49:20.569Z,932.54
2018-05-08T08:50:20.514Z,932.54
2018-05-08T08:51:20.570Z,932.56
2018-05-08T08:52:20.637Z,932.59
2018-05-08T08:53:20.656Z,932.59
2018-05-08T08:54:20.790Z,932.60
2018-05-08T08:55:20.745Z,932.62
2018-05-08T08:56:20.778Z,932.66
2018-05-08T08:57:20.829Z,932.66
2018-05-08T08:58:20.875Z,932.68
2018-05-08T08:59:21.017Z,932.69
2018-05-08T09:00:20.961Z,932.69
2018-05-08T09:01:21.012Z,932.73
2018-05-08T09:02:21.054Z,932.70
2018-05-08T09:03:21.096Z,932.69
2018-05-08T09:04:21.250Z,932.71
2018-05-08T09:05:21.187Z,932.65
2018-05-08T09:06:21.238Z,932.68
2018-05-08T09:07:21.267Z,932.65
2018-05-08T09:08:21.324Z,932.67
2018-05-08T09:09:21.465Z,932.69
2018-05-08T09:10:21.579Z,932.67
2018-05-08T09:11:21.540Z,932.67
2018-05-08T09:12:21.501Z,932.68
2018-05-08T09:13:21.531Z,932.69
2018-05-08T09:14:21.586Z,932.67
2018-05-08T09:15:21.625Z,932.66
2018-05-08T09:16:21.671Z,932.66
2018-05-08T09:17:21.714Z,932.69
2018-05-08T09:18:21.770Z,932.71
2018-05-08T09:19:21.814Z,932.69
2018-05-08T09:20:21.940Z,932.69
2018-05-08T09:21:21.904Z,932.76
2018-05-08T09:22:21.941Z,932.78
2018-05-08T09:23:21.989Z,932.73
2018-05-08T09:24:22.031Z,932.81
2018-05-08T09:25:22.168Z,932.81
2018-05-08T09:26:22.129Z,932.77
2018-05-08T09:27:22.267Z,932.82
2018-05-08T09:28:22.206Z,932.83
2018-05-08T09:29:22.250Z,932.85
2018-05-08T09:30:22.398Z,932.84
2018-05-08T09:31:22.340Z,932.89
2018-05-08T09:32:22.380Z,932.88
2018-05-08T09:33:22.431Z,932.86
2018-05-08T09:34:22.470Z,932.91
2018-05-08T09:35:22.631Z,932.91
2018-05-08T09:36:22.657Z,932.96
2018-05-08T09:37:22.593Z,932.98
2018-05-08T09:38:22.649Z,932.97
2018-05-08T09:39:22.689Z,932.99
2018-05-08T09:40:22.744Z,933.01
2018-05-08T09:41:22.896Z,932.95
2018-05-08T09:42:22.827Z,932.99
2018-05-08T09:43:22.878Z,932.97
2018-05-08T09:44:22.905Z,932.94
2018-05-08T09:45:22.947Z,932.98
2018-05-08T09:46:23.094Z,933.01
2018-05-08T09:47:23.039Z,933.05
2018-05-08T09:48:23.084Z,933.05
2018-05-08T09:49:23.139Z,933.04
2018-05-08T09:50:23.172Z,933.02
2018-05-08T09:51:23.336Z,933.02
2018-05-08T09:52:23.381Z,933.01
2018-05-08T09:53:23.305Z,933.02
2018-05-08T09:54:23.363Z,933.07
2018-05-08T09:55:23.396Z,933.11
2018-05-08T09:56:23.458Z,933.05
2018-05-08T09:57:23.594Z,932.98
2018-05-08T09:58:23.630Z,932.98
2018-05-08T09:59:23.584Z,933.06
2018-05-08T10:00:23.620Z,933.00
2018-05-08T10:01:23.673Z,933.00
2018-05-08T10:02:23.720Z,932.99
2018-05-08T10:03:23.853Z,932.95
2018-05-08T10:04:23.814Z,932.97
2018-05-08T10:05:23.853Z,933.00
2018-05-08T10:06:23.898Z,932.94
2018-05-08T10:07:23.942Z,932.93
2018-05-08T10:08:24.084Z,932.96
2018-05-08T10:09:24.032Z,932.95
2018-05-08T10:10:24.076Z,932.95
2018-05-08T10:11:24.109Z,932.95
2018-05-08T10:12:24.173Z,932.93
2018-05-08T10:13:24.317Z,932.93
2018-05-08T10:14:24.355Z,932.91
2018-05-08T10:15:24.301Z,932.97
2018-05-08T10:16:24.351Z,932.91
2018-05-08T10:17:24.387Z,932.96
2018-05-08T10:18:24.421Z,932.91
2018-05-08T10:19:24.592Z,932.93
2018-05-08T10:20:24.517Z,932.96
2018-05-08T10:21:24.601Z,932.97
2018-05-08T10:22:24.606Z,933.01
2018-05-08T10:23:24.644Z,933.00
2018-05-08T10:24:24.793Z,933.00
2018-05-08T10:25:24.747Z,932.98
2018-05-08T10:26:24.797Z,933.03
2018-05-08T10:27:24.837Z,933.06
2018-05-08T10:28:24.869Z,933.04
2018-05-08T10:29:25.025Z,933.04
2018-05-08T10:30:25.064Z,933.10
2018-05-08T10:31:25.003Z,933.11
2018-05-08T10:32:25.058Z,933.07
2018-05-08T10:33:25.109Z,933.11
2018-05-08T10:34:25.154Z,933.13
2018-05-08T10:35:25.285Z,933.14
2018-05-08T10:36:25.344Z,933.18
2018-05-08T10:37:25.275Z,933.18
2018-05-08T10:38:25.332Z,933.18
2018-05-08T10:39:25.382Z,933.23
2018-05-08T10:40:25.411Z,933.21
2018-05-08T10:41:25.566Z,933.24
2018-05-08T10:42:25.515Z,933.26
2018-05-08T10:43:25.571Z,933.29
2018-05-08T10:44:25.601Z,933.25
2018-05-08T10:45:25.642Z,933.28
2018-05-08T10:46:25.804Z,933.31
2018-05-08T10:47:25.744Z,933.31
2018-05-08T10:48:25.785Z,933.31
2018-05-08T10:49:25.844Z,933.30
2018-05-08T10:50:25.871Z,933.32
2018-05-08T10:51:26.031Z,933.31
2018-05-08T10:52:25.976Z,933.25
2018-05-08T10:53:26.024Z,933.27
2018-05-08T10:54:26.076Z,933.28
2018-05-08T10:55:26.102Z,933.28
2018-05-08T10:56:26.261Z,933.34
2018-05-08T10:57:26.206Z,933.30
2018-05-08T10:58:26.240Z,933.32
2018-05-08T10:59:26.288Z,933.34
2018-05-08T11:00:26.333Z,933.34
2018-05-08T11:01:26.549Z,933.41
2018-05-08T11:02:26.544Z,933.41
2018-05-08T11:03:26.485Z,933.43
2018-05-08T11:04:26.529Z,933.46
2018-05-08T11:05:26.583Z,933.48
2018-05-08T11:06:26.621Z,933.49
2018-05-08T11:07:26.756Z,933.51
2018-05-08T11:08:26.802Z,933.54
2018-05-08T11:09:26.748Z,933.53
2018-05-08T11:10:26.813Z,933.54
2018-05-08T11:11:26.854Z,933.49
2018-05-08T11:12:26.967Z,933.51
2018-05-08T11:13:27.045Z,933.55
2018-05-08T11:14:26.991Z,933.53
2018-05-08T11:15:27.038Z,933.53
2018-05-08T11:16:27.080Z,933.59
2018-05-08T11:17:27.132Z,933.60
2018-05-08T11:18:27.287Z,933.62
2018-05-08T11:19:27.220Z,933.57
2018-05-08T11:20:27.281Z,933.63
2018-05-08T11:21:27.309Z,933.61
2018-05-08T11:22:27.371Z,933.63
2018-05-08T11:23:27.520Z,933.56
2018-05-08T11:24:27.464Z,933.57
2018-05-08T11:25:27.507Z,933.57
2018-05-08T11:26:27.597Z,933.55
2018-05-08T11:27:27.607Z,933.52
2018-05-08T11:28:27.757Z,933.61
2018-05-08T11:29:27.698Z,933.59
2018-05-08T11:30:27.758Z,933.61
2018-05-08T11:31:27.794Z,933.63
2018-05-08T11:32:27.854Z,933.57
2018-05-08T11:33:27.895Z,933.54
2018-05-08T11:34:28.039Z,933.55
2018-05-08T11:35:28.001Z,933.61
2018-05-08T11:36:28.030Z,933.59
2018-05-08T11:37:28.088Z,933.60
2018-05-08T11:38:28.138Z,933.62
2018-05-08T11:39:28.288Z,933.62
2018-05-08T11:40:28.343Z,933.65
2018-05-08T11:41:28.271Z,933.64
2018-05-08T11:42:28.321Z,933.68
2018-05-08T11:43:28.386Z,933.68
2018-05-08T11:44:28.426Z,933.67
2018-05-08T11:45:28.564Z,933.67
2018-05-08T11:46:28.625Z,933.72
2018-05-08T11:47:28.572Z,933.72
2018-05-08T11:48:28.609Z,933.78
2018-05-08T11:49:28.658Z,933.83
2018-05-08T11:50:28.719Z,933.86
2018-05-08T11:51:28.866Z,933.88
2018-05-08T11:52:28.904Z,933.86
2018-05-08T11:53:28.849Z,933.91
2018-05-08T11:54:28.926Z,933.95
2018-05-08T11:55:28.960Z,933.86
2018-05-08T11:56:29.023Z,933.88
2018-05-08T11:57:29.156Z,933.88
2018-05-08T11:58:29.192Z,933.88
2018-05-08T11:59:29.149Z,933.90
2018-05-08T12:00:29.202Z,933.91
2018-05-08T12:01:29.236Z,933.87
2018-05-08T12:02:29.301Z,933.87
2018-05-08T12:03:29.454Z,933.88
2018-05-08T12:04:29.482Z,933.92
2018-05-08T12:05:29.443Z,933.94
2018-05-08T12:06:29.487Z,933.96
2018-05-08T12:07:29.533Z,933.95
2018-05-08T12:08:29.582Z,933.91
2018-05-08T12:09:29.726Z,933.97
2018-05-08T12:10:29.785Z,933.97
2018-05-08T12:11:29.722Z,933.97
2018-05-08T12:12:29.782Z,933.97
2018-05-08T12:13:29.817Z,934.00
2018-05-08T12:14:29.909Z,933.96
2018-05-08T12:15:30.015Z,933.93
2018-05-08T12:16:29.967Z,934.01
2018-05-08T12:17:30.013Z,933.96
2018-05-08T12:18:30.080Z,934.05
2018-05-08T12:19:30.119Z,934.00
2018-05-08T12:20:30.257Z,933.99
2018-05-08T12:21:30.217Z,933.97
2018-05-08T12:22:30.255Z,933.99
2018-05-08T12:23:30.317Z,933.99
2018-05-08T12:24:30.376Z,934.07
2018-05-08T12:25:30.595Z,934.07
2018-05-08T12:26:30.455Z,934.11
2018-05-08T12:27:30.511Z,934.14
2018-05-08T12:28:30.647Z,934.15
2018-05-08T12:29:30.685Z,934.10